Lone Tree, Illinois
Current Conditions -  °F | °C
As of 7:35 PM on Tuesday 27 Jan 2015 (Local Time) from KC75 Reporting Station
Overcast Overcast  
Wind Chill: 29°   Ceiling: 1500
Heat Index: 29°   Visibility: 10mi
Dew Point: 25°   Wind: 0mph
Humidity: 82%   Direction: NA
Pressure: 30.24"   Gusts: NA
Location:  41.2776°N, 89.5099°W
Report Text: KC75 280135Z AUTO 00000KT 10SM OVC015 M01/M04 A3024 RMK AO2 T10141041
Loading
Personal Weather Stations






























Interactive Weather Map New forecast layout! Learn more

10-Day Weather Forecast

Advertisements
Track Severe Weather on mobile